Flugplatz Nienburg-Holzbalge

Für EDXI sind keine METAR/TAF Berichte vorhanden.
Es werden die Flugwettermeldungen vom Flugplatz Wunstorf Airport in 33 km Entfernung angezeigt.

Bericht für ETNW

vom 03.06. um 00:20 UTC

Wind 4 kt aus 80°

Sichtweite 9000 m

Temperatur 15.0°C

Taupunkt 11.0°C

Luftfeuchtigkeit 77%

Luftdruck 1009 hPa

ETNW 030020Z AUTO 08004KT 9000 // ////// 15/11 Q1009 ///

Prognose für ETNW

vom 02.06. um 10:15 UTC

Am 02.06. zwischen 11:00 UTC und 11:00 UTC

Wind 8 kt aus 110°

Sichtweite 10 km oder mehr

keine signifikanten Wettererscheinungen

aufgelockert bewölkt in 28000 ft

TAF ETNW 021015Z 0211/0311 11008KT 9999 NSW SCT280 BY ETGL
Impressum